Time;durP1;ratioP1;P1;durP2;ratioP2;P2;SDS_P1;SDS_P2;PMS_P1;PMS_P2;Temp;Humidity;BMP_temperature;BMP_pressure;BME280_temperature;BME280_humidity;BME280_pressure;Samples;Min_cycle;Max_cycle;Signal;HPM_P1;HPM_P2
2021/01/21 00:02:12;;;;;;;50.07;27.73;;;;;;;;;;5012737;28;20173;-85
2021/01/21 00:04:37;;;;;;;49.13;28.23;;;;;;;;;;5013118;28;20173;-86
2021/01/21 00:07:03;;;;;;;52.00;27.40;;;;;;;;;;5012767;28;20273;-86
2021/01/21 00:09:28;;;;;;;46.80;26.37;;;;;;;;;;5012650;28;20689;-85
2021/01/21 00:11:53;;;;;;;43.43;26.00;;;;;;;;;;5013157;28;20188;-85
2021/01/21 00:14:19;;;;;;;44.63;25.73;;;;;;;;;;5013020;28;20950;-86
2021/01/21 00:16:44;;;;;;;47.57;26.83;;;;;;;;;;5012986;28;20227;-86
2021/01/21 00:19:09;;;;;;;47.53;27.37;;;;;;;;;;5013226;28;20527;-86
2021/01/21 00:21:35;;;;;;;44.13;25.67;;;;;;;;;;5012620;28;20196;-86
2021/01/21 00:24:00;;;;;;;47.73;27.80;;;;;;;;;;5012939;28;20177;-85
2021/01/21 00:26:25;;;;;;;46.27;26.50;;;;;;;;;;5012615;28;20181;-86
2021/01/21 00:28:51;;;;;;;46.37;26.07;;;;;;;;;;5013064;28;20224;-86
2021/01/21 00:31:16;;;;;;;38.87;23.77;;;;;;;;;;5012708;28;20237;-86
2021/01/21 00:33:41;;;;;;;44.13;24.57;;;;;;;;;;5012596;28;20632;-87
2021/01/21 00:36:07;;;;;;;43.83;25.13;;;;;;;;;;5012786;28;20204;-86
2021/01/21 00:38:33;;;;;;;41.47;24.33;;;;;;;;;;5012983;28;20732;-88
2021/01/21 00:40:58;;;;;;;40.80;23.47;;;;;;;;;;5014098;28;20177;-86
2021/01/21 00:43:23;;;;;;;39.60;23.60;;;;;;;;;;5012940;28;20628;-86
2021/01/21 00:45:51;;;;;;;37.13;22.97;;;;;;;;;;5013402;28;20594;-86
2021/01/21 00:48:16;;;;;;;36.80;22.53;;;;;;;;;;5013520;28;20196;-86
2021/01/21 00:50:42;;;;;;;36.43;21.17;;;;;;;;;;5013516;28;20267;-87
2021/01/21 00:53:07;;;;;;;38.50;21.90;;;;;;;;;;5013501;28;20600;-86
2021/01/21 00:55:32;;;;;;;37.13;21.37;;;;;;;;;;5013089;28;20674;-86
2021/01/21 00:57:57;;;;;;;35.87;22.17;;;;;;;;;;5014038;28;20315;-87
2021/01/21 01:00:23;;;;;;;37.93;22.00;;;;;;;;;;5016947;28;20197;-87
2021/01/21 01:02:48;;;;;;;35.90;22.50;;;;;;;;;;5017246;28;20252;-87
2021/01/21 01:05:13;;;;;;;33.80;20.53;;;;;;;;;;5016900;28;20169;-87
2021/01/21 01:07:39;;;;;;;34.17;20.47;;;;;;;;;;5016593;28;20184;-87
2021/01/21 01:10:04;;;;;;;34.70;21.20;;;;;;;;;;5017252;28;20250;-87
2021/01/21 01:12:30;;;;;;;32.50;20.27;;;;;;;;;;5016547;28;20201;-87
2021/01/21 01:14:55;;;;;;;35.97;21.43;;;;;;;;;;5016496;28;20177;-86
2021/01/21 01:17:20;;;;;;;37.50;21.13;;;;;;;;;;5015699;28;20177;-87
2021/01/21 01:19:46;;;;;;;34.93;21.27;;;;;;;;;;5016649;28;20215;-87
2021/01/21 01:22:13;;;;;;;35.93;21.50;;;;;;;;;;5016606;28;20180;-86
2021/01/21 01:24:38;;;;;;;36.53;22.00;;;;;;;;;;5016807;28;20173;-87
2021/01/21 01:27:03;;;;;;;36.83;21.60;;;;;;;;;;5016586;28;20173;-87
2021/01/21 01:29:29;;;;;;;32.43;20.87;;;;;;;;;;5016928;28;20193;-86
2021/01/21 01:31:54;;;;;;;31.87;20.30;;;;;;;;;;5016224;28;20536;-87
2021/01/21 01:34:19;;;;;;;35.23;20.77;;;;;;;;;;5016894;28;20169;-86
2021/01/21 01:36:45;;;;;;;32.87;20.80;;;;;;;;;;5016104;28;20532;-87
2021/01/21 01:39:10;;;;;;;33.37;20.40;;;;;;;;;;5016037;28;20620;-87
2021/01/21 01:41:35;;;;;;;32.00;20.77;;;;;;;;;;5017082;28;20172;-87
2021/01/21 01:44:00;;;;;;;35.97;21.53;;;;;;;;;;5015878;28;20169;-87
2021/01/21 01:46:26;;;;;;;30.10;20.13;;;;;;;;;;5016190;28;20256;-86
2021/01/21 01:48:55;;;;;;;31.87;19.97;;;;;;;;;;5016145;28;20252;-87
2021/01/21 01:51:20;;;;;;;31.40;19.27;;;;;;;;;;5015994;28;20552;-87
2021/01/21 01:53:45;;;;;;;36.00;20.17;;;;;;;;;;5016291;28;20166;-87
2021/01/21 01:56:11;;;;;;;35.10;21.17;;;;;;;;;;5016221;28;20169;-87
2021/01/21 01:58:36;;;;;;;33.97;21.23;;;;;;;;;;5015835;28;20299;-86
2021/01/21 02:01:01;;;;;;;35.70;21.00;;;;;;;;;;5015795;28;20189;-86
2021/01/21 02:03:27;;;;;;;42.83;24.23;;;;;;;;;;5015758;28;20173;-87
2021/01/21 02:05:52;;;;;;;43.57;23.80;;;;;;;;;;5015695;28;20165;-86
2021/01/21 02:08:21;;;;;;;50.90;25.13;;;;;;;;;;5015980;28;20173;-86
2021/01/21 02:10:46;;;;;;;49.27;25.77;;;;;;;;;;5014720;28;20201;-86
2021/01/21 02:13:32;;;;;;;49.83;26.07;;;;;;;;;;5015656;28;20172;-86
2021/01/21 02:16:06;;;;;;;49.47;27.33;;;;;;;;;;5015949;28;20166;-86
2021/01/21 02:18:42;;;;;;;46.70;25.13;;;;;;;;;;5014187;28;20220;-87
2021/01/21 02:21:10;;;;;;;42.07;24.63;;;;;;;;;;5015719;28;20185;-87
2021/01/21 02:23:48;;;;;;;43.83;25.37;;;;;;;;;;5014149;28;20173;-88
2021/01/21 02:26:24;;;;;;;39.67;23.27;;;;;;;;;;5015145;28;20621;-87
2021/01/21 02:28:50;;;;;;;38.77;23.60;;;;;;;;;;5015633;28;20173;-87
2021/01/21 02:31:36;;;;;;;40.40;22.93;;;;;;;;;;5014019;28;20223;-87
2021/01/21 02:34:05;;;;;;;45.67;26.80;;;;;;;;;;4990336;28;20181;-87
2021/01/21 02:36:35;;;;;;;43.40;26.40;;;;;;;;;;5015128;28;20173;-87
2021/01/21 02:39:02;;;;;;;43.73;26.60;;;;;;;;;;5015663;28;20166;-87
2021/01/21 02:41:27;;;;;;;46.33;26.97;;;;;;;;;;5015662;28;20676;-88
2021/01/21 02:43:53;;;;;;;48.03;27.90;;;;;;;;;;5015292;28;20192;-87
2021/01/21 02:46:19;;;;;;;48.33;27.40;;;;;;;;;;5014728;28;20168;-87
2021/01/21 02:48:44;;;;;;;45.30;25.93;;;;;;;;;;5015478;28;20557;-87
2021/01/21 02:51:22;;;;;;;43.63;27.07;;;;;;;;;;5014914;28;20193;-87
2021/01/21 02:53:50;;;;;;;44.33;25.57;;;;;;;;;;5014872;28;20168;-87
2021/01/21 02:56:16;;;;;;;39.50;23.73;;;;;;;;;;5015386;28;20170;-87
2021/01/21 02:58:43;;;;;;;42.93;24.97;;;;;;;;;;5014514;28;20240;-87
2021/01/21 03:01:08;;;;;;;40.37;24.33;;;;;;;;;;5014396;28;20193;-87
2021/01/21 03:03:36;;;;;;;34.77;22.70;;;;;;;;;;5014748;28;20165;-87
2021/01/21 03:06:02;;;;;;;38.87;23.20;;;;;;;;;;5015061;28;20257;-87
2021/01/21 03:08:31;;;;;;;39.20;24.03;;;;;;;;;;5014532;28;20209;-87
2021/01/21 03:11:12;;;;;;;42.13;24.57;;;;;;;;;;5014681;28;20205;-87
2021/01/21 03:13:39;;;;;;;43.10;24.33;;;;;;;;;;5014162;28;20181;-87
2021/01/21 03:16:05;;;;;;;43.60;25.83;;;;;;;;;;5015065;28;20264;-87
2021/01/21 03:18:31;;;;;;;39.57;23.83;;;;;;;;;;5014437;28;20589;-87
2021/01/21 03:20:56;;;;;;;39.83;24.83;;;;;;;;;;5014601;28;20259;-87
2021/01/21 03:23:21;;;;;;;39.67;23.80;;;;;;;;;;5014712;28;20176;-87
2021/01/21 03:25:47;;;;;;;36.97;23.73;;;;;;;;;;5014769;28;20180;-87
2021/01/21 03:28:12;;;;;;;38.20;23.33;;;;;;;;;;5025670;28;20180;-87
2021/01/21 03:30:37;;;;;;;41.33;23.80;;;;;;;;;;5014283;28;20786;-86
2021/01/21 03:33:03;;;;;;;38.27;22.67;;;;;;;;;;5014536;28;20528;-86
2021/01/21 03:35:28;;;;;;;38.17;23.90;;;;;;;;;;5014225;28;20197;-86
2021/01/21 03:37:53;;;;;;;45.07;25.93;;;;;;;;;;5014241;28;20169;-86
2021/01/21 03:40:19;;;;;;;40.57;23.77;;;;;;;;;;5014146;28;20184;-86
2021/01/21 03:42:44;;;;;;;39.90;23.73;;;;;;;;;;5014481;28;20184;-86
2021/01/21 03:45:09;;;;;;;39.50;23.87;;;;;;;;;;5014205;28;20608;-86
2021/01/21 03:47:35;;;;;;;39.47;24.37;;;;;;;;;;5014089;28;20223;-86
2021/01/21 03:50:00;;;;;;;39.30;23.70;;;;;;;;;;5014021;28;20706;-87
2021/01/21 03:52:25;;;;;;;39.97;24.43;;;;;;;;;;5014047;28;20527;-86
2021/01/21 03:54:51;;;;;;;42.20;24.80;;;;;;;;;;5014067;28;20176;-86
2021/01/21 03:57:16;;;;;;;44.57;24.90;;;;;;;;;;5014075;28;20412;-87
2021/01/21 03:59:41;;;;;;;40.33;24.50;;;;;;;;;;5014577;28;20236;-86
2021/01/21 04:02:07;;;;;;;43.17;25.47;;;;;;;;;;5013928;28;20276;-86
2021/01/21 04:04:32;;;;;;;43.50;25.93;;;;;;;;;;5014264;28;20189;-87
2021/01/21 04:06:57;;;;;;;47.07;26.97;;;;;;;;;;5013703;28;20165;-86
2021/01/21 04:09:23;;;;;;;43.73;26.20;;;;;;;;;;5013557;28;20562;-86
2021/01/21 04:11:48;;;;;;;45.27;26.40;;;;;;;;;;5013941;28;20635;-86
2021/01/21 04:14:13;;;;;;;40.83;25.03;;;;;;;;;;5013670;28;20169;-86
2021/01/21 04:16:39;;;;;;;45.90;26.53;;;;;;;;;;5013812;28;20506;-86
2021/01/21 04:19:04;;;;;;;42.60;25.27;;;;;;;;;;5013923;28;20634;-86
2021/01/21 04:21:29;;;;;;;51.87;28.93;;;;;;;;;;5013380;28;20612;-86
2021/01/21 04:23:59;;;;;;;56.47;30.10;;;;;;;;;;5013826;28;20684;-86
2021/01/21 04:26:24;;;;;;;52.60;28.87;;;;;;;;;;5014000;28;20184;-86
2021/01/21 04:28:50;;;;;;;51.10;26.63;;;;;;;;;;5013655;28;20165;-86
2021/01/21 04:31:15;;;;;;;47.27;27.07;;;;;;;;;;5013393;28;20541;-86
2021/01/21 04:33:40;;;;;;;46.30;27.37;;;;;;;;;;5016544;28;20169;-86
2021/01/21 04:36:06;;;;;;;45.53;27.23;;;;;;;;;;5017405;28;20177;-86
2021/01/21 04:38:31;;;;;;;51.60;29.80;;;;;;;;;;5017711;28;20612;-86
2021/01/21 04:40:57;;;;;;;45.97;27.73;;;;;;;;;;5017175;28;20227;-86
2021/01/21 04:43:22;;;;;;;40.33;25.00;;;;;;;;;;5017225;28;20521;-86
2021/01/21 04:45:47;;;;;;;44.30;27.13;;;;;;;;;;5017045;28;20173;-86
2021/01/21 04:48:13;;;;;;;42.60;26.10;;;;;;;;;;5016959;28;20256;-86
2021/01/21 04:50:40;;;;;;;46.43;27.30;;;;;;;;;;5017093;28;20291;-86
2021/01/21 04:53:06;;;;;;;47.53;28.13;;;;;;;;;;5017141;28;20651;-87
2021/01/21 04:55:33;;;;;;;53.33;30.63;;;;;;;;;;5016836;28;20197;-86
2021/01/21 04:58:18;;;;;;;49.83;33.03;;;;;;;;;;5016760;28;20232;-87
2021/01/21 05:00:44;;;;;;;59.27;34.50;;;;;;;;;;5016518;28;20643;-86
2021/01/21 05:03:11;;;;;;;61.40;34.90;;;;;;;;;;5017004;28;20176;-87
2021/01/21 05:05:36;;;;;;;58.80;34.90;;;;;;;;;;5015648;28;20520;-86
2021/01/21 05:08:02;;;;;;;56.83;32.73;;;;;;;;;;5016639;28;20176;-86
2021/01/21 05:10:28;;;;;;;51.47;30.43;;;;;;;;;;5016769;28;20304;-86
2021/01/21 05:12:53;;;;;;;53.17;30.57;;;;;;;;;;5016468;28;20196;-87
2021/01/21 05:15:19;;;;;;;49.47;28.93;;;;;;;;;;5015488;28;20608;-87
2021/01/21 05:17:44;;;;;;;57.53;30.07;;;;;;;;;;5016980;28;20247;-87
2021/01/21 05:20:10;;;;;;;57.20;32.27;;;;;;;;;;5016338;28;20177;-86
2021/01/21 05:22:35;;;;;;;128.40;57.97;;;;;;;;;;5016899;28;20207;-86
2021/01/21 05:25:01;;;;;;;118.57;58.17;;;;;;;;;;5016806;28;20173;-86
2021/01/21 05:27:26;;;;;;;88.93;50.07;;;;;;;;;;5016444;28;20166;-86
2021/01/21 05:29:51;;;;;;;80.63;46.37;;;;;;;;;;5016828;28;20208;-86
2021/01/21 05:32:17;;;;;;;74.17;42.93;;;;;;;;;;5016470;28;20215;-86
2021/01/21 05:34:43;;;;;;;85.93;50.03;;;;;;;;;;5016371;28;20201;-86
2021/01/21 05:37:13;;;;;;;92.20;52.90;;;;;;;;;;5016381;28;20624;-86
2021/01/21 05:39:39;;;;;;;97.33;51.70;;;;;;;;;;5016478;28;20178;-86
2021/01/21 05:42:04;;;;;;;108.67;57.20;;;;;;;;;;5015982;28;20178;-86
2021/01/21 05:44:31;;;;;;;117.70;59.80;;;;;;;;;;5016442;28;20175;-86
2021/01/21 05:46:56;;;;;;;104.87;55.53;;;;;;;;;;5015839;28;20169;-86
2021/01/21 05:49:24;;;;;;;100.30;52.50;;;;;;;;;;5016698;28;20169;-87
2021/01/21 05:51:50;;;;;;;139.03;63.20;;;;;;;;;;5040280;28;20181;-85
2021/01/21 05:54:16;;;;;;;177.23;79.50;;;;;;;;;;5040464;28;20149;-86
2021/01/21 05:56:41;;;;;;;173.83;79.17;;;;;;;;;;5040526;28;20158;-86
2021/01/21 05:59:07;;;;;;;143.67;67.03;;;;;;;;;;5021687;28;20228;-86
2021/01/21 06:01:32;;;;;;;162.17;76.43;;;;;;;;;;5015483;28;20198;-86
2021/01/21 06:03:57;;;;;;;143.53;66.87;;;;;;;;;;5015879;28;20178;-86
2021/01/21 06:06:26;;;;;;;136.93;64.87;;;;;;;;;;5015831;28;20165;-86
2021/01/21 06:08:52;;;;;;;147.43;68.37;;;;;;;;;;5015412;28;20257;-86
2021/01/21 06:11:18;;;;;;;122.90;61.47;;;;;;;;;;5015649;28;20204;-86
2021/01/21 06:13:44;;;;;;;123.33;60.97;;;;;;;;;;5015608;28;20521;-86
2021/01/21 06:16:10;;;;;;;88.27;49.07;;;;;;;;;;5015641;28;20169;-86
2021/01/21 06:18:36;;;;;;;86.13;43.50;;;;;;;;;;5015602;28;20165;-86
2021/01/21 06:21:02;;;;;;;83.30;44.03;;;;;;;;;;5015324;28;20172;-86
2021/01/21 06:23:29;;;;;;;88.93;43.13;;;;;;;;;;5015482;28;20173;-86
2021/01/21 06:25:54;;;;;;;89.20;49.00;;;;;;;;;;5015314;28;20180;-86
2021/01/21 06:28:24;;;;;;;98.50;50.00;;;;;;;;;;5015236;28;20166;-87
2021/01/21 06:30:51;;;;;;;98.83;50.67;;;;;;;;;;5013911;28;20200;-87
2021/01/21 06:33:18;;;;;;;91.27;48.87;;;;;;;;;;5016235;28;20197;-87
2021/01/21 06:35:47;;;;;;;104.87;49.57;;;;;;;;;;5014694;28;20509;-87
2021/01/21 06:38:15;;;;;;;99.80;50.93;;;;;;;;;;5015155;28;20173;-87
2021/01/21 06:40:43;;;;;;;89.63;47.70;;;;;;;;;;5015390;28;20185;-87
2021/01/21 06:43:14;;;;;;;96.60;47.00;;;;;;;;;;5015364;28;20174;-87
2021/01/21 06:45:39;;;;;;;104.87;49.40;;;;;;;;;;5015033;28;20195;-87
2021/01/21 06:48:05;;;;;;;128.87;54.43;;;;;;;;;;5015630;28;20183;-86
2021/01/21 06:50:31;;;;;;;115.53;52.73;;;;;;;;;;5015122;28;20339;-86
2021/01/21 06:53:03;;;;;;;123.67;52.67;;;;;;;;;;5014975;28;20656;-86
2021/01/21 06:55:29;;;;;;;118.10;51.27;;;;;;;;;;5014510;28;20162;-86
2021/01/21 06:57:54;;;;;;;91.03;47.10;;;;;;;;;;5013002;28;20363;-87
2021/01/21 07:00:46;;;;;;;86.17;46.67;;;;;;;;;;5012924;28;20291;-88
2021/01/21 07:03:30;;;;;;;110.67;53.67;;;;;;;;;;5012736;28;20189;-88
2021/01/21 07:05:59;;;;;;;97.93;50.53;;;;;;;;;;5011977;28;20173;-87
2021/01/21 07:08:25;;;;;;;94.67;49.50;;;;;;;;;;5014654;28;20173;-87
2021/01/21 07:10:50;;;;;;;99.40;54.83;;;;;;;;;;5014449;28;20681;-87
2021/01/21 07:13:17;;;;;;;111.13;57.47;;;;;;;;;;5014470;28;20162;-87
2021/01/21 07:15:48;;;;;;;107.00;56.77;;;;;;;;;;5014494;28;20260;-88
2021/01/21 07:18:18;;;;;;;102.60;56.37;;;;;;;;;;5013191;28;20177;-88
2021/01/21 07:21:12;;;;;;;111.17;57.23;;;;;;;;;;5014345;28;20184;-87
2021/01/21 07:23:45;;;;;;;110.90;57.77;;;;;;;;;;5011932;28;20197;-87
2021/01/21 07:26:27;;;;;;;114.30;62.83;;;;;;;;;;5014004;28;20211;-87
2021/01/21 07:28:58;;;;;;;116.60;63.60;;;;;;;;;;5013039;28;20179;-87
2021/01/21 07:31:24;;;;;;;122.03;67.77;;;;;;;;;;5013962;28;20739;-87
2021/01/21 07:34:10;;;;;;;118.80;63.53;;;;;;;;;;5014242;28;20256;-88
2021/01/21 07:36:35;;;;;;;106.90;66.73;;;;;;;;;;4995370;28;20172;-88
2021/01/21 07:39:00;;;;;;;137.60;79.13;;;;;;;;;;5009962;28;20570;-87
2021/01/21 07:41:41;;;;;;;110.87;64.07;;;;;;;;;;5014418;28;20169;-88
2021/01/21 07:44:08;;;;;;;84.30;53.10;;;;;;;;;;5024713;28;20204;-89
2021/01/21 07:46:33;;;;;;;77.20;48.27;;;;;;;;;;5032666;28;20574;-88
2021/01/21 07:49:17;;;;;;;75.30;45.03;;;;;;;;;;5033609;28;20168;-89
2021/01/21 07:51:42;;;;;;;70.77;43.63;;;;;;;;;;5032070;28;20199;-87
2021/01/21 07:54:08;;;;;;;76.03;49.00;;;;;;;;;;5033076;28;20176;-88
2021/01/21 07:56:33;;;;;;;54.53;39.07;;;;;;;;;;5033634;28;20206;-88
2021/01/21 07:58:59;;;;;;;66.23;43.17;;;;;;;;;;5029981;28;20336;-87
2021/01/21 08:01:24;;;;;;;78.60;51.70;;;;;;;;;;5025829;28;20197;-88
2021/01/21 08:03:50;;;;;;;76.17;50.70;;;;;;;;;;5013746;28;20177;-88
2021/01/21 08:06:16;;;;;;;104.10;67.23;;;;;;;;;;5010422;28;20789;-88
2021/01/21 08:08:42;;;;;;;169.03;112.13;;;;;;;;;;5036069;28;20176;-88
2021/01/21 08:11:09;;;;;;;171.03;111.23;;;;;;;;;;5037861;28;20204;-88
2021/01/21 08:13:35;;;;;;;65.63;45.50;;;;;;;;;;5037033;28;20176;-88
2021/01/21 08:16:02;;;;;;;57.37;40.83;;;;;;;;;;5037519;28;20638;-88
2021/01/21 08:18:27;;;;;;;56.33;38.47;;;;;;;;;;5037522;28;20169;-88
2021/01/21 08:20:52;;;;;;;53.00;34.67;;;;;;;;;;5038448;28;20184;-85
2021/01/21 08:23:18;;;;;;;40.67;29.13;;;;;;;;;;5040727;28;20183;-86
2021/01/21 08:25:43;;;;;;;36.20;24.67;;;;;;;;;;5041952;28;20180;-85
2021/01/21 08:28:09;;;;;;;33.07;23.93;;;;;;;;;;5038340;28;20635;-89
2021/01/21 08:30:35;;;;;;;37.27;25.93;;;;;;;;;;5037071;28;20254;-89
2021/01/21 08:33:14;;;;;;;35.53;26.40;;;;;;;;;;5036042;28;20612;-87
2021/01/21 08:35:45;;;;;;;38.57;27.37;;;;;;;;;;5037238;28;20175;-87
2021/01/21 08:38:14;;;;;;;46.87;31.03;;;;;;;;;;5037791;28;20311;-88
2021/01/21 08:40:42;;;;;;;46.50;32.70;;;;;;;;;;5037421;28;20212;-87
2021/01/21 08:43:07;;;;;;;47.93;31.77;;;;;;;;;;5035779;28;20234;-89
2021/01/21 08:45:33;;;;;;;40.60;29.43;;;;;;;;;;5036786;28;20180;-87
2021/01/21 08:47:58;;;;;;;37.63;28.00;;;;;;;;;;5036890;28;20173;-87
2021/01/21 08:50:32;;;;;;;35.83;26.30;;;;;;;;;;5036855;28;20192;-86
2021/01/21 08:52:59;;;;;;;30.33;22.37;;;;;;;;;;5037041;28;20603;-87
2021/01/21 08:55:44;;;;;;;31.73;22.63;;;;;;;;;;5036751;28;20523;-87
2021/01/21 08:58:11;;;;;;;43.37;29.60;;;;;;;;;;5035990;28;20277;-87
2021/01/21 09:00:37;;;;;;;37.30;26.57;;;;;;;;;;5036975;28;20205;-87
2021/01/21 09:03:03;;;;;;;37.70;26.80;;;;;;;;;;5035770;28;20168;-87
2021/01/21 09:05:29;;;;;;;36.73;26.17;;;;;;;;;;5036721;28;20180;-86
2021/01/21 09:08:09;;;;;;;35.90;25.50;;;;;;;;;;5036594;28;20299;-86
2021/01/21 09:10:35;;;;;;;37.80;26.37;;;;;;;;;;5036494;28;20251;-87
2021/01/21 09:13:01;;;;;;;34.13;24.40;;;;;;;;;;5036496;28;20527;-87
2021/01/21 09:15:27;;;;;;;32.40;23.53;;;;;;;;;;5036550;28;20173;-87
2021/01/21 09:18:05;;;;;;;33.63;22.63;;;;;;;;;;5036157;28;20188;-87
2021/01/21 09:20:32;;;;;;;39.17;26.70;;;;;;;;;;5025913;28;20178;-87
2021/01/21 09:23:12;;;;;;;31.60;23.07;;;;;;;;;;4997018;28;20173;-87
2021/01/21 09:25:37;;;;;;;35.67;24.23;;;;;;;;;;4997020;28;20232;-87
2021/01/21 09:28:02;;;;;;;34.93;24.87;;;;;;;;;;4996917;28;20201;-87
2021/01/21 09:30:28;;;;;;;39.10;26.87;;;;;;;;;;4996801;28;20212;-86
2021/01/21 09:32:53;;;;;;;36.37;25.43;;;;;;;;;;4997162;28;20668;-87
2021/01/21 09:35:20;;;;;;;32.30;23.60;;;;;;;;;;4995629;28;20292;-86
2021/01/21 09:37:48;;;;;;;30.30;21.93;;;;;;;;;;4995796;28;20178;-86
2021/01/21 09:40:15;;;;;;;29.33;21.60;;;;;;;;;;5001690;28;20185;-87
2021/01/21 09:42:40;;;;;;;29.37;20.10;;;;;;;;;;5012864;28;20207;-87
2021/01/21 09:45:06;;;;;;;39.87;25.00;;;;;;;;;;4995550;28;20166;-88
2021/01/21 09:47:31;;;;;;;36.73;24.47;;;;;;;;;;5001990;28;20177;-89
2021/01/21 09:49:57;;;;;;;31.90;21.50;;;;;;;;;;5014805;28;20252;-87
2021/01/21 09:52:22;;;;;;;31.00;22.20;;;;;;;;;;5013754;28;20177;-86
2021/01/21 09:54:48;;;;;;;31.53;23.87;;;;;;;;;;5010329;28;20243;-87
2021/01/21 09:57:13;;;;;;;34.10;23.70;;;;;;;;;;5008176;28;20193;-87
2021/01/21 09:59:38;;;;;;;28.63;21.53;;;;;;;;;;5011920;28;20232;-87
2021/01/21 10:02:04;;;;;;;30.27;20.87;;;;;;;;;;5013309;28;20189;-88
2021/01/21 10:04:30;;;;;;;29.53;21.20;;;;;;;;;;5010933;28;20185;-87
2021/01/21 10:06:55;;;;;;;29.23;21.87;;;;;;;;;;5013571;28;20177;-87
2021/01/21 10:09:20;;;;;;;34.27;24.30;;;;;;;;;;5013417;28;20178;-87
2021/01/21 10:11:46;;;;;;;32.30;22.43;;;;;;;;;;5014979;28;20205;-87
2021/01/21 10:14:11;;;;;;;33.77;23.40;;;;;;;;;;5014439;28;20612;-86
2021/01/21 10:16:37;;;;;;;38.00;25.67;;;;;;;;;;5014682;28;20282;-87
2021/01/21 10:19:02;;;;;;;37.50;26.53;;;;;;;;;;5014369;28;20176;-89
2021/01/21 10:21:28;;;;;;;30.90;23.47;;;;;;;;;;5014711;28;20251;-86
2021/01/21 10:23:53;;;;;;;33.60;23.73;;;;;;;;;;5031555;28;20186;-86
2021/01/21 10:26:19;;;;;;;40.53;29.23;;;;;;;;;;5034161;28;20218;-85
2021/01/21 10:28:44;;;;;;;32.13;23.00;;;;;;;;;;5033487;28;20196;-85
2021/01/21 10:31:10;;;;;;;39.20;27.00;;;;;;;;;;5011470;28;20205;-85
2021/01/21 10:33:36;;;;;;;28.07;20.20;;;;;;;;;;5014167;28;20251;-85
2021/01/21 10:36:02;;;;;;;36.30;25.47;;;;;;;;;;5017161;28;20180;-85
2021/01/21 10:38:27;;;;;;;41.37;29.50;;;;;;;;;;5033068;28;20202;-85
2021/01/21 10:40:53;;;;;;;42.87;29.07;;;;;;;;;;5021901;28;20652;-85
2021/01/21 10:43:18;;;;;;;34.07;24.27;;;;;;;;;;5014349;28;20177;-85
2021/01/21 10:45:43;;;;;;;38.30;28.37;;;;;;;;;;5014223;28;20178;-85
2021/01/21 10:48:09;;;;;;;35.87;25.03;;;;;;;;;;5013791;28;20173;-85
2021/01/21 10:50:35;;;;;;;45.53;29.80;;;;;;;;;;5013996;28;20213;-85
2021/01/21 10:53:00;;;;;;;47.73;34.30;;;;;;;;;;5033985;28;20318;-85
2021/01/21 10:55:25;;;;;;;38.53;26.40;;;;;;;;;;5033835;28;20257;-85
2021/01/21 10:57:51;;;;;;;34.43;23.77;;;;;;;;;;5033028;28;20691;-85
2021/01/21 11:00:18;;;;;;;33.57;23.97;;;;;;;;;;5031448;28;20200;-85
2021/01/21 11:02:43;;;;;;;47.37;29.57;;;;;;;;;;5033161;28;20226;-85
2021/01/21 11:05:09;;;;;;;51.67;32.40;;;;;;;;;;5033259;28;20176;-85
2021/01/21 11:07:34;;;;;;;45.50;27.43;;;;;;;;;;5025419;28;20185;-85
2021/01/21 11:10:00;;;;;;;34.77;23.63;;;;;;;;;;5012229;28;20638;-84
2021/01/21 11:12:25;;;;;;;33.83;24.03;;;;;;;;;;5012445;28;20183;-84
2021/01/21 11:14:53;;;;;;;33.73;21.93;;;;;;;;;;5020775;28;20608;-84
2021/01/21 11:17:21;;;;;;;32.37;21.50;;;;;;;;;;5015187;28;20173;-85
2021/01/21 11:19:46;;;;;;;31.33;20.87;;;;;;;;;;5013968;28;20181;-85
2021/01/21 11:22:12;;;;;;;32.43;22.07;;;;;;;;;;5013571;28;20208;-85
2021/01/21 11:24:37;;;;;;;34.00;23.17;;;;;;;;;;5011174;28;20181;-85
2021/01/21 11:27:06;;;;;;;40.03;24.83;;;;;;;;;;5013045;28;20208;-85
2021/01/21 11:29:31;;;;;;;36.03;22.87;;;;;;;;;;5011366;28;20181;-85
2021/01/21 11:31:56;;;;;;;33.73;23.10;;;;;;;;;;5012951;28;20639;-85
2021/01/21 11:34:22;;;;;;;39.80;26.57;;;;;;;;;;5013208;28;20173;-85
2021/01/21 11:36:48;;;;;;;31.83;21.57;;;;;;;;;;5012883;28;20177;-85
2021/01/21 11:39:13;;;;;;;33.90;23.33;;;;;;;;;;4993479;28;20236;-86
2021/01/21 11:41:40;;;;;;;40.23;26.30;;;;;;;;;;4988693;28;20182;-86
2021/01/21 11:44:05;;;;;;;40.73;27.57;;;;;;;;;;5013022;28;20184;-86
2021/01/21 11:46:31;;;;;;;26.27;19.23;;;;;;;;;;5013157;28;20231;-86
2021/01/21 11:48:57;;;;;;;24.20;18.63;;;;;;;;;;5012961;28;20173;-85
2021/01/21 11:51:23;;;;;;;22.93;16.70;;;;;;;;;;5012837;28;20217;-86
2021/01/21 11:53:48;;;;;;;20.10;16.00;;;;;;;;;;5012828;28;20179;-86
2021/01/21 11:56:14;;;;;;;21.77;16.40;;;;;;;;;;5012996;28;20177;-86
2021/01/21 11:58:39;;;;;;;21.97;15.40;;;;;;;;;;5012984;28;20320;-86
2021/01/21 12:01:04;;;;;;;22.63;16.13;;;;;;;;;;5017818;28;20627;-86
2021/01/21 12:03:30;;;;;;;19.63;15.77;;;;;;;;;;5032070;28;20601;-86
2021/01/21 12:05:55;;;;;;;23.43;17.37;;;;;;;;;;5031795;28;20635;-86
2021/01/21 12:08:21;;;;;;;24.83;17.70;;;;;;;;;;5030186;28;20238;-86
2021/01/21 12:10:48;;;;;;;18.53;14.37;;;;;;;;;;5015951;28;20659;-86
2021/01/21 12:13:13;;;;;;;21.00;15.37;;;;;;;;;;5011478;28;20260;-87
2021/01/21 12:15:39;;;;;;;27.37;18.97;;;;;;;;;;5012920;28;20603;-86
2021/01/21 12:18:04;;;;;;;25.00;18.83;;;;;;;;;;5012697;28;20181;-85
2021/01/21 12:20:29;;;;;;;24.60;17.83;;;;;;;;;;5013012;28;20173;-85
2021/01/21 12:22:55;;;;;;;29.57;19.90;;;;;;;;;;5012462;28;20181;-85
2021/01/21 12:25:20;;;;;;;31.63;19.23;;;;;;;;;;5012643;28;20166;-85
2021/01/21 12:27:45;;;;;;;33.70;21.30;;;;;;;;;;5012839;28;20191;-86
2021/01/21 12:30:11;;;;;;;37.07;23.40;;;;;;;;;;5010970;28;20201;-86
2021/01/21 12:32:36;;;;;;;52.30;33.80;;;;;;;;;;5011071;28;20201;-85
2021/01/21 12:35:02;;;;;;;37.70;26.63;;;;;;;;;;5011223;28;20184;-86
2021/01/21 12:37:27;;;;;;;34.90;23.23;;;;;;;;;;5011248;28;20173;-87
2021/01/21 12:39:53;;;;;;;30.27;21.97;;;;;;;;;;5010793;28;20628;-86
2021/01/21 12:42:19;;;;;;;27.60;19.67;;;;;;;;;;5011615;28;20511;-86
2021/01/21 12:44:45;;;;;;;30.80;21.20;;;;;;;;;;5012725;28;20212;-86
2021/01/21 12:47:10;;;;;;;43.53;30.50;;;;;;;;;;5009792;28;20584;-85
2021/01/21 12:49:35;;;;;;;35.63;22.23;;;;;;;;;;5012219;28;20227;-85
2021/01/21 12:52:01;;;;;;;30.00;21.37;;;;;;;;;;5012248;28;20239;-86
2021/01/21 12:54:26;;;;;;;27.30;20.80;;;;;;;;;;5013127;28;20193;-86
2021/01/21 12:56:51;;;;;;;27.07;20.10;;;;;;;;;;5016229;28;20575;-85
2021/01/21 12:59:17;;;;;;;29.00;20.57;;;;;;;;;;5015644;28;20568;-85
2021/01/21 13:01:45;;;;;;;24.60;19.47;;;;;;;;;;5015824;28;20189;-85
2021/01/21 13:04:10;;;;;;;29.20;20.03;;;;;;;;;;5015992;28;20173;-85
2021/01/21 13:06:35;;;;;;;26.17;19.43;;;;;;;;;;5016189;28;20226;-85
2021/01/21 13:09:01;;;;;;;27.63;20.77;;;;;;;;;;5015673;28;20571;-85
2021/01/21 13:11:26;;;;;;;27.23;21.30;;;;;;;;;;5015677;28;20208;-86
2021/01/21 13:13:51;;;;;;;31.77;23.87;;;;;;;;;;5016088;28;20201;-85
2021/01/21 13:16:17;;;;;;;28.03;21.97;;;;;;;;;;5015795;28;20169;-86
2021/01/21 13:18:43;;;;;;;30.50;22.30;;;;;;;;;;5015414;28;20632;-87
2021/01/21 13:21:08;;;;;;;30.37;22.70;;;;;;;;;;5015826;28;20181;-86
2021/01/21 13:23:33;;;;;;;28.43;21.30;;;;;;;;;;5015733;28;20172;-85
2021/01/21 13:26:00;;;;;;;28.60;21.27;;;;;;;;;;5015160;28;20185;-85
2021/01/21 13:28:25;;;;;;;30.93;24.53;;;;;;;;;;5014210;28;20181;-85
2021/01/21 13:30:51;;;;;;;34.27;23.70;;;;;;;;;;5015121;28;20215;-85
2021/01/21 13:33:16;;;;;;;35.00;24.60;;;;;;;;;;5014773;28;20184;-85
2021/01/21 13:35:42;;;;;;;36.37;27.93;;;;;;;;;;5015680;28;20173;-85
2021/01/21 13:38:08;;;;;;;34.87;25.87;;;;;;;;;;5014883;28;20277;-85
2021/01/21 13:40:34;;;;;;;43.17;27.20;;;;;;;;;;5015142;28;20672;-85
2021/01/21 13:43:02;;;;;;;38.13;26.17;;;;;;;;;;5013704;28;20208;-85
2021/01/21 13:45:27;;;;;;;44.00;27.93;;;;;;;;;;5013919;28;20208;-85
2021/01/21 13:47:53;;;;;;;47.07;31.20;;;;;;;;;;5015179;28;20196;-86
2021/01/21 13:50:18;;;;;;;51.10;35.20;;;;;;;;;;5036029;28;20219;-85
2021/01/21 13:52:44;;;;;;;54.47;34.90;;;;;;;;;;5039622;28;20166;-85
2021/01/21 13:55:19;;;;;;;46.50;31.50;;;;;;;;;;5036827;28;20185;-86
2021/01/21 13:57:44;;;;;;;52.10;37.00;;;;;;;;;;5008765;28;20199;-86
2021/01/21 14:00:10;;;;;;;72.23;42.67;;;;;;;;;;5031067;28;20634;-86
2021/01/21 14:02:36;;;;;;;59.43;39.77;;;;;;;;;;5022256;28;20174;-85
2021/01/21 14:05:01;;;;;;;72.63;44.53;;;;;;;;;;5013416;28;20173;-85
2021/01/21 14:07:26;;;;;;;70.40;40.00;;;;;;;;;;5014473;28;20165;-86
2021/01/21 14:09:52;;;;;;;68.60;36.73;;;;;;;;;;5009484;28;20217;-86
2021/01/21 14:12:17;;;;;;;77.90;42.57;;;;;;;;;;5011570;28;20620;-86
2021/01/21 14:14:42;;;;;;;63.30;37.87;;;;;;;;;;5014930;28;20169;-86